createdAt,value
2023-02-14T00:01:41.316Z,61.17
2023-02-14T00:04:07.966Z,60.46
2023-02-14T00:06:34.671Z,60.66
2023-02-14T00:09:01.403Z,61.04
2023-02-14T00:11:28.042Z,60.98
2023-02-14T00:13:54.642Z,60.64
2023-02-14T00:16:21.355Z,61.03
2023-02-14T00:18:48.163Z,60.65
2023-02-14T00:21:14.831Z,60.90
2023-02-14T00:23:41.420Z,61.03
2023-02-14T00:26:08.094Z,60.94
2023-02-14T00:28:34.770Z,61.13
2023-02-14T00:31:01.738Z,59.67
2023-02-14T00:33:28.628Z,59.63
2023-02-14T00:35:55.294Z,60.31
2023-02-14T00:38:21.884Z,61.00
2023-02-14T00:40:48.564Z,61.17
2023-02-14T00:43:15.217Z,61.56
2023-02-14T00:45:41.879Z,61.29
2023-02-14T00:48:08.542Z,61.49
2023-02-14T00:50:35.230Z,61.20
2023-02-14T00:53:01.875Z,61.29
2023-02-14T00:55:28.644Z,61.01
2023-02-14T00:57:55.265Z,61.55
2023-02-14T01:00:21.939Z,61.92
2023-02-14T01:02:48.563Z,61.64
2023-02-14T01:05:15.341Z,61.30
2023-02-14T01:07:42.091Z,61.57
2023-02-14T01:10:08.730Z,61.47
2023-02-14T01:12:35.412Z,61.30
2023-02-14T01:15:02.071Z,62.36
2023-02-14T01:17:28.780Z,62.30
2023-02-14T01:19:55.457Z,62.13
2023-02-14T01:22:22.102Z,62.78
2023-02-14T01:24:48.774Z,62.11
2023-02-14T01:27:15.392Z,61.73
2023-02-14T01:29:42.118Z,62.10
2023-02-14T01:32:08.788Z,61.90
2023-02-14T01:34:35.614Z,63.03
2023-02-14T01:37:02.310Z,62.72
2023-02-14T01:39:28.987Z,62.35
2023-02-14T01:41:55.605Z,62.52
2023-02-14T01:44:22.241Z,61.89
2023-02-14T01:46:48.922Z,61.91
2023-02-14T01:49:15.555Z,62.40
2023-02-14T01:51:42.199Z,62.12
2023-02-14T01:54:08.823Z,62.37
2023-02-14T01:56:35.465Z,62.11
2023-02-14T01:59:02.162Z,61.97
2023-02-14T02:01:28.821Z,62.13
2023-02-14T02:03:55.538Z,61.51
2023-02-14T02:06:22.173Z,61.37
2023-02-14T02:08:48.793Z,61.10
2023-02-14T02:11:15.496Z,60.52
2023-02-14T02:13:42.137Z,61.28
2023-02-14T02:16:08.902Z,61.82
2023-02-14T02:18:35.514Z,61.77
2023-02-14T02:21:02.147Z,61.40
2023-02-14T02:23:28.778Z,61.65
2023-02-14T02:25:55.366Z,61.04
2023-02-14T02:28:22.028Z,60.73
2023-02-14T02:30:48.772Z,61.08
2023-02-14T02:33:15.530Z,61.58
2023-02-14T02:35:42.217Z,61.37
2023-02-14T02:38:08.928Z,61.21
2023-02-14T02:40:35.660Z,61.21
2023-02-14T02:43:02.379Z,61.38
2023-02-14T02:45:29.037Z,61.54
2023-02-14T02:47:58.101Z,61.26
2023-02-14T02:50:24.766Z,61.52
2023-02-14T02:52:51.462Z,62.12
2023-02-14T02:55:18.063Z,62.08
2023-02-14T02:57:44.906Z,61.91
2023-02-14T03:00:11.590Z,62.11
2023-02-14T03:02:38.267Z,62.29
2023-02-14T03:05:05.021Z,63.36
2023-02-14T03:07:31.662Z,62.95
2023-02-14T03:09:58.285Z,63.21
2023-02-14T03:12:24.929Z,63.16
2023-02-14T03:14:51.608Z,63.00
2023-02-14T03:17:18.305Z,63.09
2023-02-14T03:19:44.951Z,63.43
2023-02-14T03:22:11.575Z,63.32
2023-02-14T03:24:38.174Z,62.91
2023-02-14T03:27:04.926Z,62.60
2023-02-14T03:29:31.614Z,62.33
2023-02-14T03:31:58.306Z,62.63
2023-02-14T03:34:25.016Z,63.01
2023-02-14T03:36:51.676Z,63.66
2023-02-14T03:39:18.323Z,63.24
2023-02-14T03:41:44.970Z,63.80
2023-02-14T03:44:11.601Z,63.29
2023-02-14T03:46:38.416Z,62.79
2023-02-14T03:49:05.124Z,63.13
2023-02-14T03:51:31.744Z,63.49
2023-02-14T03:53:58.460Z,63.62
2023-02-14T03:56:25.129Z,62.84
2023-02-14T03:58:51.777Z,62.75
2023-02-14T04:01:18.474Z,62.12
2023-02-14T04:03:45.210Z,62.19
2023-02-14T04:06:11.939Z,62.74
2023-02-14T04:08:38.599Z,62.54
2023-02-14T04:11:05.221Z,63.04
2023-02-14T04:13:31.894Z,63.89
2023-02-14T04:15:58.583Z,64.44
2023-02-14T04:18:25.344Z,63.62
2023-02-14T04:20:51.980Z,63.47
2023-02-14T04:23:18.655Z,63.21
2023-02-14T04:25:45.298Z,62.53
2023-02-14T04:28:11.940Z,62.70
2023-02-14T04:30:38.564Z,62.21
2023-02-14T04:33:05.223Z,62.74
2023-02-14T04:35:31.861Z,63.16
2023-02-14T04:37:58.535Z,63.55
2023-02-14T04:40:25.188Z,64.49
2023-02-14T04:42:51.826Z,64.31
2023-02-14T04:45:18.445Z,63.52
2023-02-14T04:47:45.123Z,64.28
2023-02-14T04:50:13.809Z,63.49
2023-02-14T04:52:40.429Z,62.82
2023-02-14T04:55:07.062Z,62.68
2023-02-14T04:57:33.688Z,62.95
2023-02-14T05:00:00.382Z,62.58
2023-02-14T05:02:27.055Z,62.08
2023-02-14T05:04:53.751Z,62.97
2023-02-14T05:07:20.377Z,63.03
2023-02-14T05:09:47.554Z,62.66
2023-02-14T05:12:14.401Z,62.95
2023-02-14T05:14:41.089Z,62.65
2023-02-14T05:17:07.843Z,62.21
2023-02-14T05:19:34.476Z,62.45
2023-02-14T05:22:01.110Z,62.66
2023-02-14T05:24:27.786Z,63.11
2023-02-14T05:26:54.804Z,62.55
2023-02-14T05:29:21.458Z,62.42
2023-02-14T05:31:48.202Z,62.31
2023-02-14T05:34:14.919Z,62.95
2023-02-14T05:36:41.542Z,63.31
2023-02-14T05:39:08.177Z,63.24
2023-02-14T05:41:34.840Z,62.61
2023-02-14T05:44:01.617Z,62.93
2023-02-14T05:46:28.225Z,62.76
2023-02-14T05:48:54.844Z,62.57
2023-02-14T05:51:21.485Z,61.79
2023-02-14T05:53:48.211Z,61.99
2023-02-14T05:56:14.886Z,62.30
2023-02-14T05:58:41.550Z,61.97
2023-02-14T06:01:08.214Z,62.31
2023-02-14T06:03:34.816Z,61.95
2023-02-14T06:06:01.493Z,61.46
2023-02-14T06:08:28.138Z,62.24
2023-02-14T06:10:54.856Z,62.74
2023-02-14T06:13:21.529Z,62.91
2023-02-14T06:15:48.288Z,63.62
2023-02-14T06:18:14.991Z,63.91
2023-02-14T06:20:41.627Z,63.59
2023-02-14T06:23:08.237Z,62.84
2023-02-14T06:25:34.898Z,62.88
2023-02-14T06:28:01.576Z,62.99
2023-02-14T06:30:28.378Z,64.01
2023-02-14T06:32:55.073Z,63.85
2023-02-14T06:35:21.850Z,62.84
2023-02-14T06:37:48.643Z,63.96
2023-02-14T06:40:15.334Z,63.82
2023-02-14T06:42:42.209Z,63.44
2023-02-14T06:45:08.916Z,63.22
2023-02-14T06:47:35.533Z,62.72
2023-02-14T06:50:02.151Z,62.38
2023-02-14T06:52:28.845Z,62.60
2023-02-14T06:54:55.580Z,62.74
2023-02-14T06:57:22.214Z,63.16
2023-02-14T06:59:48.858Z,62.63
2023-02-14T07:02:15.537Z,62.68
2023-02-14T07:04:42.311Z,62.64
2023-02-14T07:07:09.023Z,62.24
2023-02-14T07:09:35.658Z,62.06
2023-02-14T07:12:02.292Z,61.92
2023-02-14T07:14:28.992Z,63.36
2023-02-14T07:16:55.675Z,64.35
2023-02-14T07:19:22.316Z,63.29
2023-02-14T07:21:49.043Z,62.80
2023-02-14T07:24:15.671Z,62.50
2023-02-14T07:26:42.294Z,61.94
2023-02-14T07:29:08.943Z,62.36
2023-02-14T07:31:35.687Z,61.32
2023-02-14T07:34:02.448Z,61.51
2023-02-14T07:36:29.069Z,61.32
2023-02-14T07:38:55.738Z,62.29
2023-02-14T07:41:22.382Z,62.50
2023-02-14T07:43:49.095Z,62.78
2023-02-14T07:46:15.808Z,63.08
2023-02-14T07:48:42.497Z,62.57
2023-02-14T07:51:09.092Z,63.17
2023-02-14T07:53:35.715Z,62.46
2023-02-14T07:56:02.404Z,62.39
2023-02-14T07:58:29.349Z,60.82
2023-02-14T08:00:56.009Z,60.77
2023-02-14T08:03:22.644Z,60.54
2023-02-14T08:05:49.362Z,60.57
2023-02-14T08:08:16.014Z,59.65
2023-02-14T08:10:42.696Z,58.63
2023-02-14T08:13:09.345Z,59.24
2023-02-14T08:15:36.047Z,59.48
2023-02-14T08:18:02.723Z,57.91
2023-02-14T08:20:29.418Z,58.24
2023-02-14T08:22:56.116Z,57.65
2023-02-14T08:25:22.777Z,57.33
2023-02-14T08:27:49.440Z,57.97
2023-02-14T08:30:16.090Z,57.64
2023-02-14T08:32:42.856Z,57.37
2023-02-14T08:35:09.508Z,57.73
2023-02-14T08:37:36.152Z,57.22
2023-02-14T08:40:02.785Z,57.87
2023-02-14T08:42:29.396Z,57.41
2023-02-14T08:44:56.038Z,57.30
2023-02-14T08:47:22.743Z,56.03
2023-02-14T08:49:49.434Z,56.45
2023-02-14T08:52:16.169Z,55.44
2023-02-14T08:54:43.114Z,55.43
2023-02-14T08:57:09.773Z,55.14
2023-02-14T08:59:36.420Z,54.74
2023-02-14T09:02:03.056Z,54.26
2023-02-14T09:04:29.802Z,53.90
2023-02-14T09:06:56.514Z,53.80
2023-02-14T09:09:23.160Z,53.24
2023-02-14T09:11:49.943Z,53.07
2023-02-14T09:14:17.316Z,52.90
2023-02-14T09:16:44.116Z,52.67
2023-02-14T09:19:10.891Z,52.78
2023-02-14T09:21:37.568Z,52.17
2023-02-14T09:24:04.212Z,53.41
2023-02-14T09:26:30.855Z,52.61
2023-02-14T09:28:57.514Z,52.96
2023-02-14T09:31:24.267Z,52.28
2023-02-14T09:33:50.981Z,51.92
2023-02-14T09:36:17.687Z,51.38
2023-02-14T09:38:44.904Z,51.52
2023-02-14T09:41:11.561Z,51.22
2023-02-14T09:43:38.248Z,50.81
2023-02-14T09:46:05.002Z,50.50
2023-02-14T09:48:31.708Z,50.10
2023-02-14T09:50:58.699Z,50.47
2023-02-14T09:53:25.673Z,50.26
2023-02-14T09:55:52.336Z,51.73
2023-02-14T09:58:19.033Z,50.91
2023-02-14T10:00:45.733Z,50.89
2023-02-14T10:03:12.409Z,50.61
2023-02-14T10:05:39.039Z,50.25
2023-02-14T10:08:05.723Z,50.50
2023-02-14T10:10:32.421Z,50.56
2023-02-14T10:12:59.312Z,49.87
2023-02-14T10:15:26.066Z,49.25
2023-02-14T10:17:52.738Z,50.79
2023-02-14T10:20:19.413Z,50.33
2023-02-14T10:22:46.044Z,50.95
2023-02-14T10:25:12.647Z,50.65
2023-02-14T10:27:39.332Z,48.96
2023-02-14T10:30:06.036Z,49.03
2023-02-14T10:32:32.768Z,48.64
2023-02-14T10:34:59.460Z,49.14
2023-02-14T10:37:26.111Z,48.55
2023-02-14T10:39:52.749Z,48.50
2023-02-14T10:42:19.396Z,48.56
2023-02-14T10:44:46.106Z,48.69
2023-02-14T10:47:12.724Z,48.45
2023-02-14T10:49:39.388Z,48.34
2023-02-14T10:52:06.021Z,48.00
2023-02-14T10:54:32.672Z,47.11
2023-02-14T10:56:59.368Z,48.36
2023-02-14T10:59:26.002Z,47.34
2023-02-14T11:01:52.687Z,47.08
2023-02-14T11:04:19.387Z,45.27
2023-02-14T11:06:46.004Z,46.40
2023-02-14T11:09:12.716Z,45.76
2023-02-14T11:11:39.387Z,46.82
2023-02-14T11:14:06.107Z,46.48
2023-02-14T11:16:32.749Z,46.08
2023-02-14T11:18:59.473Z,45.58
2023-02-14T11:21:26.205Z,44.55
2023-02-14T11:23:52.862Z,44.14
2023-02-14T11:26:19.536Z,44.20
2023-02-14T11:28:46.161Z,44.73
2023-02-14T11:31:12.984Z,44.66
2023-02-14T11:33:39.689Z,44.81
2023-02-14T11:36:06.377Z,44.77
2023-02-14T11:38:33.016Z,44.25
2023-02-14T11:40:59.990Z,43.82
2023-02-14T11:43:26.803Z,43.36
2023-02-14T11:45:53.497Z,43.29
2023-02-14T11:48:34.947Z,43.23
2023-02-14T11:51:03.674Z,43.88
2023-02-14T11:53:30.384Z,44.14
2023-02-14T11:55:57.053Z,44.59
2023-02-14T11:58:23.665Z,43.20
2023-02-14T12:00:50.337Z,44.39
2023-02-14T12:03:17.034Z,43.26
2023-02-14T12:05:43.803Z,42.48
2023-02-14T12:08:10.494Z,42.65
2023-02-14T12:10:37.127Z,41.80
2023-02-14T12:13:12.697Z,42.20
2023-02-14T12:15:39.724Z,41.24
2023-02-14T12:18:06.441Z,40.97
2023-02-14T12:20:33.087Z,42.08
2023-02-14T12:22:59.781Z,42.77
2023-02-14T12:25:26.470Z,41.39
2023-02-14T12:27:53.142Z,43.39
2023-02-14T12:30:19.862Z,44.87
2023-02-14T12:32:46.573Z,43.20
2023-02-14T12:35:13.284Z,41.81
2023-02-14T12:37:39.956Z,42.24
2023-02-14T12:40:06.715Z,42.22
2023-02-14T12:42:33.390Z,41.44
2023-02-14T12:45:00.137Z,42.46
2023-02-14T12:47:26.821Z,41.62
2023-02-14T12:49:53.473Z,41.74
2023-02-14T12:52:20.197Z,43.34
2023-02-14T12:54:46.915Z,42.15
2023-02-14T12:57:13.608Z,40.94
2023-02-14T12:59:40.250Z,40.97
2023-02-14T13:02:06.932Z,41.61
2023-02-14T13:04:33.678Z,41.41
2023-02-14T13:07:00.376Z,41.20
2023-02-14T13:09:27.610Z,40.67
2023-02-14T13:11:54.346Z,40.66
2023-02-14T13:14:21.049Z,40.43
2023-02-14T13:16:47.729Z,41.98
2023-02-14T13:19:14.371Z,41.14
2023-02-14T13:21:41.088Z,40.16
2023-02-14T13:24:07.694Z,39.50
2023-02-14T13:26:34.889Z,40.41
2023-02-14T13:29:01.660Z,41.07
2023-02-14T13:31:28.742Z,41.82
2023-02-14T13:33:55.474Z,41.10
2023-02-14T13:36:22.126Z,39.80
2023-02-14T13:38:48.774Z,40.47
2023-02-14T13:41:15.524Z,39.42
2023-02-14T13:43:42.226Z,40.22
2023-02-14T13:46:08.898Z,41.67
2023-02-14T13:48:38.012Z,41.28
2023-02-14T13:51:05.538Z,41.73
2023-02-14T13:53:32.234Z,40.92
2023-02-14T13:55:59.137Z,39.89
2023-02-14T13:58:26.057Z,39.21
2023-02-14T14:00:52.743Z,39.50
2023-02-14T14:03:19.503Z,38.92
2023-02-14T14:05:46.185Z,39.38
2023-02-14T14:08:12.860Z,39.86
2023-02-14T14:10:39.552Z,42.16
2023-02-14T14:13:06.258Z,40.22
2023-02-14T14:15:32.985Z,40.59
2023-02-14T14:17:59.670Z,40.33
2023-02-14T14:20:26.391Z,39.85
2023-02-14T14:22:53.088Z,39.98
2023-02-14T14:25:19.810Z,40.63
2023-02-14T14:27:46.494Z,41.26
2023-02-14T14:30:13.236Z,42.97
2023-02-14T14:32:39.943Z,41.15
2023-02-14T14:35:06.660Z,41.66
2023-02-14T14:37:33.263Z,41.52
2023-02-14T14:39:59.939Z,41.10
2023-02-14T14:42:26.585Z,40.41
2023-02-14T14:44:53.287Z,41.15
2023-02-14T14:47:19.949Z,40.57
2023-02-14T14:49:46.552Z,41.34
2023-02-14T14:52:13.242Z,42.54
2023-02-14T14:54:39.884Z,42.71
2023-02-14T14:57:06.514Z,42.02
2023-02-14T14:59:33.188Z,42.65
2023-02-14T15:01:59.834Z,42.56
2023-02-14T15:04:26.606Z,42.75
2023-02-14T15:06:53.291Z,44.12
2023-02-14T15:09:22.362Z,43.47
2023-02-14T15:11:50.083Z,42.78
2023-02-14T15:14:16.700Z,42.42
2023-02-14T15:16:43.407Z,42.25
2023-02-14T15:19:10.106Z,42.20
2023-02-14T15:21:36.763Z,42.22
2023-02-14T15:24:03.467Z,42.32
2023-02-14T15:26:30.167Z,42.29
2023-02-14T15:28:56.911Z,42.07
2023-02-14T15:31:23.697Z,42.69
2023-02-14T15:33:50.369Z,42.65
2023-02-14T15:36:17.002Z,42.86
2023-02-14T15:38:43.698Z,42.87
2023-02-14T15:41:10.339Z,43.23
2023-02-14T15:43:36.949Z,43.24
2023-02-14T15:46:03.605Z,43.15
2023-02-14T15:48:30.354Z,43.44
2023-02-14T15:50:56.977Z,43.76
2023-02-14T15:53:23.616Z,43.83
2023-02-14T15:55:50.253Z,43.93
2023-02-14T15:58:16.857Z,44.29
2023-02-14T16:00:43.580Z,44.61
2023-02-14T16:03:10.302Z,44.77
2023-02-14T16:05:36.929Z,45.26
2023-02-14T16:08:03.703Z,45.71
2023-02-14T16:10:30.475Z,45.91
2023-02-14T16:12:57.856Z,45.96
2023-02-14T16:15:24.570Z,46.27
2023-02-14T16:17:51.173Z,46.56
2023-02-14T16:20:17.873Z,46.79
2023-02-14T16:22:44.513Z,46.78
2023-02-14T16:25:11.293Z,47.00
2023-02-14T16:27:37.945Z,47.21
2023-02-14T16:30:04.652Z,47.84
2023-02-14T16:32:31.430Z,47.39
2023-02-14T16:34:58.155Z,47.76
2023-02-14T16:37:24.855Z,47.82
2023-02-14T16:39:51.596Z,48.56
2023-02-14T16:42:18.320Z,48.28
2023-02-14T16:44:45.031Z,49.20
2023-02-14T16:47:11.786Z,49.49
2023-02-14T16:49:38.431Z,50.11
2023-02-14T16:52:05.162Z,49.71
2023-02-14T16:54:32.411Z,50.46
2023-02-14T16:56:59.096Z,49.99
2023-02-14T16:59:25.820Z,50.40
2023-02-14T17:01:52.494Z,50.68
2023-02-14T17:04:19.241Z,50.23
2023-02-14T17:06:45.901Z,49.72
2023-02-14T17:09:12.599Z,50.32
2023-02-14T17:11:39.267Z,50.37
2023-02-14T17:14:05.860Z,50.51
2023-02-14T17:16:32.513Z,50.85
2023-02-14T17:18:59.146Z,51.24
2023-02-14T17:21:25.852Z,51.36
2023-02-14T17:23:52.518Z,50.77
2023-02-14T17:26:19.170Z,50.83
2023-02-14T17:28:45.986Z,50.87
2023-02-14T17:31:12.721Z,50.78
2023-02-14T17:33:39.410Z,51.41
2023-02-14T17:36:06.075Z,51.28
2023-02-14T17:38:32.731Z,51.36
2023-02-14T17:40:59.760Z,52.16
2023-02-14T17:43:26.581Z,51.89
2023-02-14T17:45:53.492Z,52.08
2023-02-14T17:48:20.140Z,51.68
2023-02-14T17:50:46.887Z,51.67
2023-02-14T17:53:13.497Z,52.27
2023-02-14T17:55:40.125Z,52.77
2023-02-14T17:58:06.822Z,53.48
2023-02-14T18:00:33.456Z,53.34
2023-02-14T18:03:00.123Z,53.62
2023-02-14T18:05:26.856Z,53.46
2023-02-14T18:07:53.460Z,53.46
2023-02-14T18:10:20.090Z,53.73
2023-02-14T18:12:46.818Z,53.94
2023-02-14T18:15:13.484Z,54.07
2023-02-14T18:17:40.113Z,54.31
2023-02-14T18:20:06.729Z,54.94
2023-02-14T18:22:33.404Z,55.58
2023-02-14T18:25:00.138Z,55.07
2023-02-14T18:27:26.832Z,54.66
2023-02-14T18:29:53.562Z,55.47
2023-02-14T18:32:20.271Z,56.03
2023-02-14T18:34:47.281Z,56.10
2023-02-14T18:37:14.223Z,55.58
2023-02-14T18:39:40.933Z,54.79
2023-02-14T18:42:07.538Z,55.06
2023-02-14T18:44:34.217Z,54.82
2023-02-14T18:47:00.964Z,55.15
2023-02-14T18:49:27.589Z,55.30
2023-02-14T18:51:54.254Z,56.84
2023-02-14T18:54:20.962Z,56.28
2023-02-14T18:56:47.599Z,56.68
2023-02-14T18:59:14.296Z,56.07
2023-02-14T19:01:41.028Z,57.51
2023-02-14T19:04:07.716Z,56.29
2023-02-14T19:06:34.414Z,56.60
2023-02-14T19:09:02.235Z,57.44
2023-02-14T19:11:28.956Z,56.20
2023-02-14T19:13:55.582Z,56.64
2023-02-14T19:16:22.306Z,56.15
2023-02-14T19:18:48.960Z,56.20
2023-02-14T19:21:15.556Z,56.64
2023-02-14T19:23:42.210Z,56.99
2023-02-14T19:26:08.860Z,58.69
2023-02-14T19:28:35.516Z,57.30
2023-02-14T19:31:02.407Z,56.58
2023-02-14T19:33:29.287Z,58.36
2023-02-14T19:35:55.886Z,58.83
2023-02-14T19:38:22.583Z,58.64
2023-02-14T19:40:49.234Z,57.98
2023-02-14T19:43:15.882Z,57.75
2023-02-14T19:45:42.569Z,57.26
2023-02-14T19:48:09.253Z,57.09
2023-02-14T19:50:35.969Z,56.08
2023-02-14T19:53:02.608Z,56.14
2023-02-14T19:55:29.237Z,55.96
2023-02-14T19:57:55.891Z,56.84
2023-02-14T20:00:22.599Z,56.83
2023-02-14T20:02:49.235Z,56.21
2023-02-14T20:05:15.951Z,57.91
2023-02-14T20:07:42.661Z,57.85
2023-02-14T20:10:09.306Z,59.25
2023-02-14T20:12:35.950Z,60.00
2023-02-14T20:15:02.612Z,59.19
2023-02-14T20:17:29.295Z,58.11
2023-02-14T20:19:55.912Z,57.74
2023-02-14T20:22:22.588Z,58.64
2023-02-14T20:24:52.303Z,58.35
2023-02-14T20:27:18.941Z,58.58
2023-02-14T20:29:45.598Z,59.96
2023-02-14T20:32:12.222Z,59.49
2023-02-14T20:34:38.855Z,59.54
2023-02-14T20:37:05.548Z,58.34
2023-02-14T20:39:32.263Z,57.96
2023-02-14T20:41:58.961Z,58.51
2023-02-14T20:44:25.635Z,58.77
2023-02-14T20:46:54.650Z,59.50
2023-02-14T20:49:21.324Z,59.56
2023-02-14T20:51:47.989Z,59.32
2023-02-14T20:54:14.620Z,57.71
2023-02-14T20:56:41.292Z,57.84
2023-02-14T20:59:08.016Z,58.05
2023-02-14T21:01:34.831Z,57.32
2023-02-14T21:04:01.656Z,58.40
2023-02-14T21:06:28.334Z,59.45
2023-02-14T21:08:55.056Z,58.58
2023-02-14T21:11:21.767Z,58.61
2023-02-14T21:13:48.400Z,58.69
2023-02-14T21:16:15.069Z,58.32
2023-02-14T21:18:41.701Z,59.12
2023-02-14T21:21:08.321Z,59.16
2023-02-14T21:23:35.009Z,59.32
2023-02-14T21:26:01.678Z,59.23
2023-02-14T21:28:28.338Z,59.78
2023-02-14T21:30:54.997Z,59.70
2023-02-14T21:33:21.675Z,58.97
2023-02-14T21:35:48.318Z,59.57
2023-02-14T21:38:14.938Z,60.04
2023-02-14T21:40:41.597Z,59.71
2023-02-14T21:43:08.235Z,59.08
2023-02-14T21:45:34.872Z,60.09
2023-02-14T21:48:01.519Z,59.85
2023-02-14T21:50:28.155Z,60.33
2023-02-14T21:52:54.753Z,60.02
2023-02-14T21:55:21.372Z,60.52
2023-02-14T21:57:48.002Z,60.64
2023-02-14T22:00:14.676Z,61.59
2023-02-14T22:02:41.347Z,62.02
2023-02-14T22:05:08.021Z,61.93
2023-02-14T22:07:34.670Z,61.24
2023-02-14T22:10:01.347Z,60.83
2023-02-14T22:12:28.115Z,60.91
2023-02-14T22:14:54.721Z,60.67
2023-02-14T22:17:21.308Z,60.18
2023-02-14T22:19:47.958Z,60.79
2023-02-14T22:22:14.606Z,60.15
2023-02-14T22:24:41.254Z,59.11
2023-02-14T22:27:07.866Z,60.12
2023-02-14T22:29:34.558Z,60.63
2023-02-14T22:32:01.224Z,60.50
2023-02-14T22:34:27.972Z,60.16
2023-02-14T22:36:54.653Z,60.35
2023-02-14T22:39:21.306Z,60.13
2023-02-14T22:41:48.030Z,60.22
2023-02-14T22:44:14.672Z,60.31
2023-02-14T22:46:41.317Z,61.15
2023-02-14T22:49:08.019Z,61.20
2023-02-14T22:51:34.712Z,60.74
2023-02-14T22:54:01.386Z,60.16
2023-02-14T22:56:28.064Z,59.81
2023-02-14T22:58:54.701Z,60.83
2023-02-14T23:01:21.380Z,61.33
2023-02-14T23:03:48.113Z,60.99
2023-02-14T23:06:14.797Z,61.59
2023-02-14T23:08:41.473Z,60.93
2023-02-14T23:11:08.148Z,60.64
2023-02-14T23:13:34.788Z,61.26
2023-02-14T23:16:01.667Z,61.30
2023-02-14T23:18:28.485Z,60.74
2023-02-14T23:20:55.145Z,60.87
2023-02-14T23:23:21.756Z,60.46
2023-02-14T23:25:48.498Z,59.77
2023-02-14T23:28:15.154Z,59.84
2023-02-14T23:30:41.783Z,59.96
2023-02-14T23:33:08.457Z,59.88
2023-02-14T23:35:35.206Z,60.30
2023-02-14T23:38:01.819Z,60.32
2023-02-14T23:40:29.429Z,60.17
2023-02-14T23:42:56.052Z,59.43
2023-02-14T23:45:22.742Z,60.14
2023-02-14T23:47:49.503Z,59.86
2023-02-14T23:50:16.128Z,59.87
2023-02-14T23:52:42.821Z,60.70
2023-02-14T23:55:09.493Z,60.19
2023-02-14T23:57:36.181Z,60.67
